createdAt,value
2023-07-26T00:52:10.006Z,7.7
2023-07-26T00:53:11.595Z,7.7
2023-07-26T00:54:13.146Z,7.7
2023-07-26T00:55:14.709Z,7.7
2023-07-26T00:56:16.040Z,7.7
2023-07-26T00:57:17.427Z,7.7
2023-07-26T00:58:19.034Z,7.7
2023-07-26T00:59:20.316Z,7.7
2023-07-26T01:00:21.634Z,7.6
2023-07-26T01:01:23.640Z,7.6
2023-07-26T01:02:25.833Z,7.7
2023-07-26T01:03:27.864Z,7.7
2023-07-26T01:04:29.779Z,7.7
2023-07-26T01:05:31.140Z,7.7
2023-07-26T01:06:32.389Z,7.6
2023-07-26T01:07:33.917Z,7.7
2023-07-26T01:08:35.604Z,7.7
2023-07-26T01:09:37.077Z,7.7
2023-07-26T01:10:38.625Z,7.7
2023-07-26T01:11:40.021Z,7.7
2023-07-26T01:12:41.309Z,7.7
2023-07-26T01:13:42.598Z,7.6
2023-07-26T01:14:44.371Z,7.6
2023-07-26T01:15:45.919Z,7.6
2023-07-26T01:16:47.804Z,7.6
2023-07-26T01:17:49.549Z,7.6
2023-07-26T01:18:51.062Z,7.5
2023-07-26T01:19:52.717Z,7.5
2023-07-26T01:20:54.012Z,7.5
2023-07-26T01:21:55.395Z,7.5
2023-07-26T01:22:56.784Z,7.5
2023-07-26T01:23:58.216Z,7.5
2023-07-26T01:24:59.964Z,7.5
2023-07-26T01:26:01.649Z,7.5
2023-07-26T01:27:03.089Z,7.5
2023-07-26T01:28:04.614Z,7.5
2023-07-26T01:29:06.160Z,7.5
2023-07-26T01:30:07.730Z,7.5
2023-07-26T01:31:09.476Z,7.6
2023-07-26T01:32:10.925Z,7.6
2023-07-26T01:33:12.504Z,7.6
2023-07-26T01:34:14.027Z,7.6
2023-07-26T01:35:15.606Z,7.6
2023-07-26T01:36:17.164Z,7.6
2023-07-26T01:37:18.680Z,7.6
2023-07-26T01:38:20.102Z,7.6
2023-07-26T01:39:21.572Z,7.6
2023-07-26T01:40:22.951Z,7.7
2023-07-26T01:41:24.541Z,7.7
2023-07-26T01:42:25.974Z,7.7
2023-07-26T01:43:27.536Z,7.7
2023-07-26T01:44:29.108Z,7.7
2023-07-26T01:45:30.616Z,7.7
2023-07-26T01:46:33.117Z,7.7
2023-07-26T01:47:34.862Z,7.7
2023-07-26T01:48:36.274Z,7.7
2023-07-26T01:49:37.600Z,7.7
2023-07-26T01:50:39.203Z,7.8
2023-07-26T01:51:40.737Z,7.8
2023-07-26T01:52:42.137Z,7.8
2023-07-26T01:53:44.011Z,7.8
2023-07-26T01:54:45.820Z,7.8
2023-07-26T01:55:47.219Z,7.8
2023-07-26T01:56:48.631Z,7.8
2023-07-26T01:57:50.169Z,7.8
2023-07-26T01:58:51.573Z,7.8
2023-07-26T01:59:53.158Z,7.8
2023-07-26T02:00:54.747Z,7.8
2023-07-26T02:01:59.247Z,7.8
2023-07-26T02:03:01.111Z,7.8
2023-07-26T02:04:03.025Z,7.8
2023-07-26T02:05:04.491Z,7.8
2023-07-26T02:06:06.185Z,7.8
2023-07-26T02:07:07.677Z,7.8
2023-07-26T02:08:09.458Z,7.8
2023-07-26T02:09:11.031Z,7.8
2023-07-26T02:10:12.567Z,7.8
2023-07-26T02:11:13.830Z,7.9
2023-07-26T02:12:15.348Z,7.9
2023-07-26T02:13:16.932Z,7.9
2023-07-26T02:14:18.484Z,7.9
2023-07-26T02:15:21.169Z,7.9
2023-07-26T02:16:22.981Z,7.9
2023-07-26T02:17:24.674Z,7.8
2023-07-26T02:18:26.231Z,7.8
2023-07-26T02:19:27.798Z,7.8
2023-07-26T02:20:29.364Z,7.7
2023-07-26T02:21:32.672Z,7.6
2023-07-26T02:22:34.477Z,7.5
2023-07-26T02:23:36.203Z,7.4
2023-07-26T02:24:37.917Z,7.3
2023-07-26T02:25:39.394Z,7.2
2023-07-26T02:26:40.789Z,7.2
2023-07-26T02:27:42.347Z,7.1
2023-07-26T02:28:43.921Z,7.1
2023-07-26T02:29:45.498Z,7.1
2023-07-26T02:30:47.088Z,7.1
2023-07-26T02:31:49.084Z,7.1
2023-07-26T02:32:51.125Z,7.1
2023-07-26T02:33:52.567Z,7.1
2023-07-26T02:34:54.082Z,7.1
2023-07-26T02:35:55.648Z,7.1
2023-07-26T02:36:57.349Z,7.1
2023-07-26T02:37:58.964Z,7.1
2023-07-26T02:39:00.485Z,7.1
2023-07-26T02:40:02.074Z,7.1
2023-07-26T02:41:03.750Z,7.1
2023-07-26T02:42:05.355Z,7.1
2023-07-26T02:43:06.906Z,7.1
2023-07-26T02:44:08.480Z,7.1
2023-07-26T02:45:10.065Z,7.1
2023-07-26T02:46:12.146Z,7.1
2023-07-26T02:47:13.693Z,7.1
2023-07-26T02:48:15.120Z,7.2
2023-07-26T02:49:16.649Z,7.1
2023-07-26T02:50:18.376Z,7.2
2023-07-26T02:51:20.024Z,7.1
2023-07-26T02:52:21.960Z,7.1
2023-07-26T02:53:23.512Z,7.1
2023-07-26T02:54:25.150Z,7.1
2023-07-26T02:55:26.688Z,7.2
2023-07-26T02:56:28.281Z,7.2
2023-07-26T02:57:29.768Z,7.2
2023-07-26T02:58:31.287Z,7.2
2023-07-26T02:59:32.824Z,7.2
2023-07-26T03:00:34.421Z,7.2
2023-07-26T03:01:37.849Z,7.2
2023-07-26T03:02:39.842Z,7.2
2023-07-26T03:03:41.747Z,7.2
2023-07-26T03:04:43.332Z,7.2
2023-07-26T03:05:44.565Z,7.2
2023-07-26T03:06:46.219Z,7.2
2023-07-26T03:07:47.693Z,7.2
2023-07-26T03:08:49.268Z,7.2
2023-07-26T03:09:50.856Z,7.2
2023-07-26T03:10:52.112Z,7.2
2023-07-26T03:11:53.716Z,7.2
2023-07-26T03:12:55.223Z,7.2
2023-07-26T03:13:56.730Z,7.2
2023-07-26T03:14:58.284Z,7.2
2023-07-26T03:15:59.928Z,7.2
2023-07-26T03:40:57.095Z,7.3
2023-07-26T03:41:58.615Z,7.4
2023-07-26T03:43:00.310Z,7.4
2023-07-26T03:44:01.871Z,7.4
2023-07-26T03:45:03.176Z,7.4
2023-07-26T03:46:04.929Z,7.4
2023-07-26T03:47:06.350Z,7.4
2023-07-26T03:48:08.415Z,7.4
2023-07-26T03:49:10.023Z,7.4
2023-07-26T03:50:11.973Z,7.4
2023-07-26T03:51:13.567Z,7.5
2023-07-26T03:52:14.985Z,7.5
2023-07-26T03:53:16.555Z,7.5
2023-07-26T03:54:18.124Z,7.5
2023-07-26T03:55:19.711Z,7.5
2023-07-26T03:56:21.265Z,7.5
2023-07-26T03:57:22.708Z,7.5
2023-07-26T03:58:24.073Z,7.6
2023-07-26T03:59:25.476Z,7.6
2023-07-26T04:00:27.036Z,7.7
2023-07-26T04:01:28.728Z,7.7
2023-07-26T04:02:31.320Z,7.7
2023-07-26T04:03:33.528Z,7.8
2023-07-26T04:04:35.089Z,7.8
2023-07-26T04:05:36.585Z,7.8
2023-07-26T04:06:38.104Z,7.8
2023-07-26T04:07:39.392Z,7.8
2023-07-26T04:08:40.963Z,7.8
2023-07-26T04:09:42.605Z,7.8
2023-07-26T04:10:44.167Z,7.9
2023-07-26T04:11:45.868Z,7.9
2023-07-26T04:12:47.436Z,7.9
2023-07-26T04:13:49.021Z,7.9
2023-07-26T04:14:50.535Z,7.9
2023-07-26T04:15:52.170Z,7.9
2023-07-26T04:16:53.692Z,7.9
2023-07-26T04:17:55.440Z,7.9
2023-07-26T04:18:57.218Z,7.9
2023-07-26T04:19:58.793Z,7.9
2023-07-26T04:21:00.320Z,7.9
2023-07-26T04:22:01.871Z,7.9
2023-07-26T04:23:03.269Z,7.9
2023-07-26T04:24:04.762Z,7.9
2023-07-26T04:25:06.218Z,7.9
2023-07-26T04:26:08.191Z,7.9
2023-07-26T04:27:09.775Z,7.9
2023-07-26T04:28:11.208Z,7.8
2023-07-26T04:29:12.810Z,7.8
2023-07-26T04:30:14.257Z,7.9
2023-07-26T04:31:16.207Z,7.9
2023-07-26T04:32:17.810Z,7.9
2023-07-26T04:33:19.666Z,7.9
2023-07-26T04:34:21.262Z,7.9
2023-07-26T04:35:22.668Z,7.9
2023-07-26T04:36:24.041Z,7.9
2023-07-26T04:37:25.690Z,7.9
2023-07-26T04:38:27.301Z,7.9
2023-07-26T04:39:28.852Z,7.9
2023-07-26T04:40:30.458Z,7.9
2023-07-26T04:41:31.987Z,7.9
2023-07-26T04:42:33.512Z,7.9
2023-07-26T04:43:35.065Z,7.6
2023-07-26T04:44:36.644Z,7.6
2023-07-26T04:45:37.970Z,7.6
2023-07-26T04:46:39.693Z,7.5
2023-07-26T04:47:41.532Z,7.4
2023-07-26T04:48:43.073Z,7.4
2023-07-26T04:49:44.727Z,7.3
2023-07-26T04:50:46.307Z,7.2
2023-07-26T04:51:47.742Z,7.2
2023-07-26T04:52:49.230Z,7.2
2023-07-26T04:53:50.756Z,7.2
2023-07-26T04:54:52.224Z,7.2
2023-07-26T04:55:53.748Z,7.2
2023-07-26T04:56:55.319Z,7.2
2023-07-26T04:57:56.836Z,7.2
2023-07-26T04:58:58.213Z,7.2
2023-07-26T04:59:59.833Z,7.2
2023-07-26T05:01:01.622Z,7.2
2023-07-26T05:02:03.152Z,7.2
2023-07-26T05:03:05.025Z,7.2
2023-07-26T05:04:06.765Z,7.2
2023-07-26T05:05:08.301Z,7.2
2023-07-26T05:06:09.885Z,7.2
2023-07-26T05:07:11.341Z,7.2
2023-07-26T05:08:12.716Z,7.2
2023-07-26T05:09:14.140Z,7.2
2023-07-26T05:10:15.689Z,7.2
2023-07-26T05:11:17.356Z,7.2
2023-07-26T05:12:18.905Z,7.2
2023-07-26T05:13:20.550Z,7.2
2023-07-26T05:14:22.202Z,7.2
2023-07-26T05:15:23.680Z,7.2
2023-07-26T05:16:25.375Z,7.2
2023-07-26T05:17:27.307Z,7.2
2023-07-26T05:18:28.524Z,7.2
2023-07-26T05:19:29.940Z,7.2
2023-07-26T05:20:31.373Z,7.2
2023-07-26T05:21:35.322Z,7.2
2023-07-26T05:22:36.937Z,7.2
2023-07-26T05:23:38.454Z,7.2
2023-07-26T05:24:40.098Z,7.2
2023-07-26T05:25:41.656Z,7.3
2023-07-26T05:26:43.199Z,7.3
2023-07-26T05:27:44.582Z,7.3
2023-07-26T05:28:46.082Z,7.3
2023-07-26T05:29:47.831Z,7.4
2023-07-26T05:30:49.826Z,7.4
2023-07-26T05:31:51.376Z,7.4
2023-07-26T05:32:52.928Z,7.5
2023-07-26T05:33:54.348Z,7.5
2023-07-26T05:34:55.885Z,7.5
2023-07-26T05:35:57.348Z,7.6
2023-07-26T05:36:59.002Z,7.6
2023-07-26T05:38:00.503Z,7.6
2023-07-26T05:39:02.096Z,7.6
2023-07-26T05:40:03.647Z,7.6
2023-07-26T05:41:05.100Z,7.7
2023-07-26T05:42:06.547Z,7.7
2023-07-26T05:43:08.133Z,7.7
2023-07-26T05:44:09.714Z,7.7
2023-07-26T05:45:11.396Z,7.8
2023-07-26T05:46:13.359Z,7.8
2023-07-26T05:47:14.803Z,7.8
2023-07-26T05:48:16.124Z,7.8
2023-07-26T05:49:17.278Z,7.8
2023-07-26T05:50:18.693Z,7.8
2023-07-26T05:51:20.300Z,7.8
2023-07-26T05:52:21.834Z,7.8
2023-07-26T05:53:23.409Z,7.9
2023-07-26T05:54:24.920Z,7.9
2023-07-26T05:55:26.447Z,7.9
2023-07-26T05:56:27.753Z,7.9
2023-07-26T05:57:29.348Z,7.9
2023-07-26T05:58:30.922Z,7.9
2023-07-26T05:59:32.539Z,7.9
2023-07-26T06:00:33.915Z,7.9
2023-07-26T06:01:37.624Z,7.9
2023-07-26T06:02:39.453Z,7.8
2023-07-26T06:03:40.877Z,7.8
2023-07-26T06:04:42.533Z,7.8
2023-07-26T06:05:44.232Z,7.8
2023-07-26T06:06:45.830Z,7.8
2023-07-26T06:07:47.367Z,7.8
2023-07-26T06:08:48.894Z,7.8
2023-07-26T06:09:50.501Z,7.8
2023-07-26T06:10:51.930Z,7.8
2023-07-26T06:11:59.995Z,7.8
2023-07-26T06:13:01.781Z,7.8
2023-07-26T06:14:03.487Z,7.8
2023-07-26T06:15:04.903Z,7.8
2023-07-26T06:16:06.651Z,7.8
2023-07-26T06:17:09.363Z,7.8
2023-07-26T06:18:11.638Z,7.8
2023-07-26T06:19:13.247Z,7.8
2023-07-26T06:20:14.778Z,7.8
2023-07-26T06:21:16.353Z,7.8
2023-07-26T06:22:17.920Z,7.8
2023-07-26T06:23:19.459Z,7.8
2023-07-26T06:24:21.057Z,7.8
2023-07-26T06:25:22.649Z,7.8
2023-07-26T06:26:24.058Z,7.8
2023-07-26T06:27:25.653Z,7.8
2023-07-26T06:28:27.154Z,7.8
2023-07-26T06:29:28.714Z,7.8
2023-07-26T06:30:30.461Z,7.8
2023-07-26T06:31:34.226Z,7.8
2023-07-26T06:32:36.243Z,7.8
2023-07-26T06:33:37.806Z,7.8
2023-07-26T06:34:39.446Z,7.8
2023-07-26T06:35:41.114Z,7.9
2023-07-26T06:36:42.316Z,7.8
2023-07-26T06:37:43.881Z,7.8
2023-07-26T06:38:45.401Z,7.8
2023-07-26T06:39:46.854Z,7.9
2023-07-26T06:40:48.187Z,7.9
2023-07-26T06:41:49.520Z,7.9
2023-07-26T06:42:50.995Z,7.9
2023-07-26T06:43:52.646Z,7.9
2023-07-26T06:44:53.986Z,7.9
2023-07-26T06:45:55.715Z,7.9
2023-07-26T06:46:57.334Z,7.9
2023-07-26T06:47:59.474Z,7.9
2023-07-26T06:49:01.022Z,7.9
2023-07-26T06:50:02.770Z,7.9
2023-07-26T06:51:04.426Z,7.8
2023-07-26T06:52:06.054Z,7.8
2023-07-26T06:53:07.649Z,7.8
2023-07-26T06:54:08.972Z,7.8
2023-07-26T06:55:10.569Z,7.8
2023-07-26T06:56:12.154Z,7.7
2023-07-26T06:57:13.563Z,7.7
2023-07-26T06:58:15.223Z,7.6
2023-07-26T06:59:16.767Z,7.5
2023-07-26T07:00:18.253Z,7.4
2023-07-26T07:01:20.216Z,7.3
2023-07-26T07:02:21.735Z,7.2
2023-07-26T07:03:23.412Z,7.2
2023-07-26T07:04:25.207Z,7.2
2023-07-26T07:05:26.765Z,7.2
2023-07-26T07:06:28.306Z,7.2
2023-07-26T07:07:29.721Z,7.2
2023-07-26T07:08:31.323Z,7.2
2023-07-26T07:09:32.879Z,7.2
2023-07-26T07:10:34.467Z,7.2
2023-07-26T07:11:37.880Z,7.2
2023-07-26T07:12:39.460Z,7.2
2023-07-26T07:13:40.912Z,7.2
2023-07-26T07:14:42.406Z,7.2
2023-07-26T07:15:43.766Z,7.2
2023-07-26T07:16:45.359Z,7.2
2023-07-26T07:18:14.913Z,7.2
2023-07-26T07:19:17.396Z,7.2
2023-07-26T07:20:18.918Z,7.3
2023-07-26T07:25:32.177Z,7.3
2023-07-26T07:26:33.678Z,7.4
2023-07-26T07:27:35.208Z,7.4
2023-07-26T07:28:36.773Z,7.4
2023-07-26T07:37:55.364Z,7.5
2023-07-26T07:38:56.688Z,7.5
2023-07-26T07:39:58.488Z,7.6
2023-07-26T07:41:00.034Z,7.6
2023-07-26T07:42:01.413Z,7.6
2023-07-26T07:43:02.858Z,7.6
2023-07-26T07:44:04.350Z,7.7
2023-07-26T07:45:05.860Z,7.7
2023-07-26T07:46:07.900Z,7.7
2023-07-26T08:00:40.495Z,7.8
2023-07-26T08:01:42.417Z,7.8
2023-07-26T08:03:45.971Z,7.8
2023-07-26T08:04:47.426Z,7.8
2023-07-26T08:05:48.964Z,7.8
2023-07-26T08:06:50.483Z,7.8
2023-07-26T08:07:52.288Z,7.9
2023-07-26T08:08:53.957Z,7.9
2023-07-26T08:09:55.373Z,7.9
2023-07-26T08:10:57.106Z,7.9
2023-07-26T08:11:58.914Z,7.9
2023-07-26T08:29:39.378Z,7.9
2023-07-26T08:31:43.074Z,7.9
2023-07-26T08:33:46.268Z,7.9
2023-07-26T08:34:47.774Z,7.9
2023-07-26T08:35:49.256Z,7.9
2023-07-26T08:36:51.016Z,7.9
2023-07-26T08:37:52.515Z,7.8
2023-07-26T08:38:54.072Z,7.8
2023-07-26T08:39:55.586Z,7.8
2023-07-26T08:40:57.111Z,7.7
2023-07-26T08:41:58.789Z,7.7
2023-07-26T08:43:00.295Z,7.6
2023-07-26T08:44:01.743Z,7.5
2023-07-26T08:45:03.421Z,7.4
2023-07-26T08:46:05.076Z,7.2
2023-07-26T08:47:06.691Z,7.2
2023-07-26T08:48:08.795Z,7.2
2023-07-26T08:49:10.111Z,7.2
2023-07-26T08:50:11.726Z,7.2
2023-07-26T08:51:13.368Z,7.2
2023-07-26T08:52:14.995Z,7.2
2023-07-26T08:53:16.450Z,7.2
2023-07-26T08:54:17.990Z,7.2
2023-07-26T08:55:19.631Z,7.2
2023-07-26T10:38:57.009Z,7.2
2023-07-26T10:39:58.633Z,7.2
2023-07-26T10:41:00.247Z,7.2
2023-07-26T10:42:01.859Z,7.2
2023-07-26T10:43:03.401Z,7.2
2023-07-26T10:44:04.962Z,7.2
2023-07-26T10:45:06.741Z,7.2
2023-07-26T10:46:08.739Z,7.2
2023-07-26T10:47:10.267Z,7.2
2023-07-26T10:48:11.787Z,7.2
2023-07-26T10:49:13.302Z,7.2
2023-07-26T10:50:15.251Z,7.2
2023-07-26T10:51:16.797Z,7.2
2023-07-26T10:52:18.489Z,7.2
2023-07-26T10:53:19.872Z,7.2
2023-07-26T10:54:21.275Z,7.2
2023-07-26T10:55:22.642Z,7.2
2023-07-26T10:56:24.040Z,7.2
2023-07-26T10:57:25.828Z,7.2
2023-07-26T10:58:27.404Z,7.2
2023-07-26T10:59:30.055Z,7.2
2023-07-26T11:00:31.599Z,7.2
2023-07-26T11:01:33.420Z,7.2
2023-07-26T11:02:35.375Z,7.2
2023-07-26T11:03:36.805Z,7.2
2023-07-26T11:04:38.461Z,7.2
2023-07-26T11:05:39.992Z,7.2
2023-07-26T11:06:41.399Z,7.2
2023-07-26T11:07:43.036Z,7.2
2023-07-26T11:08:44.824Z,7.2
2023-07-26T11:09:46.403Z,7.2
2023-07-26T11:10:47.830Z,7.2
2023-07-26T11:11:49.503Z,7.2
2023-07-26T11:12:50.989Z,7.2
2023-07-26T11:13:52.483Z,7.2
2023-07-26T11:16:32.826Z,7.2
2023-07-26T12:22:17.206Z,7.9
2023-07-26T12:23:18.681Z,7.9
2023-07-26T12:24:20.373Z,7.4
2023-07-26T12:25:22.167Z,7.9
2023-07-26T12:26:23.950Z,7.9
2023-07-26T12:27:25.705Z,7.9
2023-07-26T12:28:27.472Z,7.9
2023-07-26T12:29:28.771Z,7.9
2023-07-26T12:30:30.396Z,7.9
2023-07-26T12:33:37.100Z,7.8
2023-07-26T12:34:38.620Z,7.8
2023-07-26T12:35:40.179Z,7.7
2023-07-26T12:36:41.791Z,7.6
2023-07-26T12:37:43.216Z,7.4
2023-07-26T12:38:44.473Z,7.3
2023-07-26T12:39:45.861Z,7.2
2023-07-26T12:40:47.273Z,7.1
2023-07-26T12:41:48.960Z,7.2
2023-07-26T12:42:50.262Z,7.2
2023-07-26T12:43:51.695Z,7.2
2023-07-26T12:44:53.218Z,7.2
2023-07-26T12:45:55.252Z,7.2
2023-07-26T16:12:30.805Z,7.9
2023-07-26T16:27:00.034Z,7.6
2023-07-26T16:28:01.558Z,7.6
2023-07-26T16:29:02.975Z,7.6
2023-07-26T16:30:04.454Z,7.6
2023-07-26T16:31:05.858Z,7.7
2023-07-26T16:32:07.541Z,7.8
2023-07-26T16:33:09.170Z,7.8
2023-07-26T16:34:10.749Z,7.9
2023-07-26T16:35:12.399Z,7.9
2023-07-26T16:36:14.080Z,7.9
2023-07-26T16:37:15.497Z,7.9
2023-07-26T16:38:17.180Z,7.9
2023-07-26T16:39:18.601Z,7.9
2023-07-26T16:40:20.134Z,7.9
2023-07-26T16:41:21.639Z,7.9
2023-07-26T16:42:23.035Z,7.8
2023-07-26T16:43:24.472Z,7.8
2023-07-26T16:44:26.028Z,7.8
2023-07-26T16:45:27.428Z,7.8
2023-07-26T19:04:54.627Z,7.2
2023-07-26T19:05:56.172Z,7.2
2023-07-26T19:06:57.694Z,7.2
2023-07-26T19:07:59.209Z,7.2
2023-07-26T19:09:00.962Z,7.2
2023-07-26T19:10:02.919Z,7.2
2023-07-26T19:11:04.439Z,7.2
2023-07-26T19:12:06.483Z,7.2
2023-07-26T19:13:08.041Z,7.2
2023-07-26T19:14:09.421Z,7.2
2023-07-26T19:15:11.321Z,7.2
2023-07-26T19:16:13.123Z,7.2
2023-07-26T19:17:14.604Z,7.2
2023-07-26T19:18:16.147Z,7.2
2023-07-26T19:19:17.731Z,7.2
2023-07-26T19:20:19.296Z,7.2
2023-07-26T19:21:20.849Z,7.2
2023-07-26T19:22:22.963Z,7.2
2023-07-26T19:23:24.980Z,7.2
2023-07-26T19:24:26.642Z,7.2
2023-07-26T19:25:28.418Z,7.2
2023-07-26T19:26:30.053Z,7.2
2023-07-26T19:27:31.719Z,7.2
2023-07-26T19:28:33.227Z,7.3
2023-07-26T19:29:34.638Z,7.3
2023-07-26T19:30:36.309Z,7.3
2023-07-26T19:31:37.923Z,7.4
2023-07-26T19:32:39.819Z,7.4
2023-07-26T19:33:42.000Z,7.4
2023-07-26T19:34:43.852Z,7.5
2023-07-26T19:35:45.459Z,7.5
2023-07-26T19:36:46.955Z,7.6
2023-07-26T19:37:48.500Z,7.6
2023-07-26T19:38:50.015Z,7.6
2023-07-26T19:39:51.456Z,7.6
2023-07-26T19:40:53.234Z,7.6
2023-07-26T19:41:54.766Z,7.6
2023-07-26T19:42:56.324Z,7.6
2023-07-26T19:43:57.901Z,7.6
2023-07-26T19:44:59.589Z,7.6
2023-07-26T19:46:01.728Z,7.6
2023-07-26T19:47:03.625Z,7.6
2023-07-26T19:48:05.747Z,7.6
2023-07-26T19:49:07.346Z,7.6
2023-07-26T19:50:08.884Z,7.7
2023-07-26T19:51:10.304Z,7.7
2023-07-26T19:52:11.786Z,7.8
2023-07-26T19:53:13.414Z,7.8
2023-07-26T19:54:14.810Z,7.8
2023-07-26T19:55:16.162Z,7.8
2023-07-26T19:56:17.845Z,7.8
2023-07-26T19:57:19.634Z,7.9
2023-07-26T19:58:21.212Z,7.9
2023-07-26T19:59:22.840Z,7.8
2023-07-26T20:00:24.506Z,7.9
2023-07-26T20:01:26.174Z,7.9
2023-07-26T20:02:28.485Z,7.9
2023-07-26T20:03:30.653Z,7.9
2023-07-26T20:04:32.005Z,7.9
2023-07-26T20:05:33.394Z,7.9
2023-07-26T20:06:36.740Z,7.9
2023-07-26T20:07:38.319Z,7.9
2023-07-26T20:08:40.042Z,7.9
2023-07-26T20:09:41.337Z,7.9
2023-07-26T20:10:42.891Z,7.9
2023-07-26T20:11:44.546Z,7.9
2023-07-26T20:12:46.033Z,7.9
2023-07-26T20:13:47.516Z,7.9
2023-07-26T20:14:49.143Z,7.9
2023-07-26T20:15:50.708Z,7.9
2023-07-26T20:16:52.578Z,7.9
2023-07-26T20:17:54.439Z,7.9
2023-07-26T20:18:56.119Z,7.9
2023-07-26T20:19:57.464Z,7.9
2023-07-26T20:20:58.792Z,7.9
2023-07-26T20:22:00.386Z,7.9
2023-07-26T20:23:01.879Z,7.9
2023-07-26T20:24:03.632Z,7.9
2023-07-26T20:25:05.754Z,7.9
2023-07-26T20:26:07.316Z,7.9
2023-07-26T20:27:08.915Z,7.9
2023-07-26T20:28:10.300Z,7.9
2023-07-26T20:29:11.864Z,7.9
2023-07-26T20:30:13.453Z,7.9
2023-07-26T20:31:15.052Z,7.8
2023-07-26T20:32:16.386Z,7.8
2023-07-26T20:33:18.387Z,7.8
2023-07-26T20:34:20.033Z,7.9
2023-07-26T20:35:21.547Z,7.9
2023-07-26T20:36:22.997Z,7.9
2023-07-26T20:37:24.428Z,7.9
2023-07-26T20:38:25.878Z,7.9
2023-07-26T20:39:27.400Z,7.9
2023-07-26T20:40:28.994Z,7.9
2023-07-26T20:41:30.716Z,7.9
2023-07-26T20:42:33.165Z,7.9
2023-07-26T20:43:34.699Z,7.9
2023-07-26T20:44:36.025Z,7.9
2023-07-26T20:45:37.475Z,7.9
2023-07-26T20:46:39.677Z,7.9
2023-07-26T20:47:41.475Z,7.9
2023-07-26T20:48:43.009Z,7.9
2023-07-26T20:49:44.553Z,7.9
2023-07-26T20:50:46.059Z,7.9
2023-07-26T20:51:47.476Z,7.9
2023-07-26T20:52:48.972Z,7.9
2023-07-26T20:53:50.551Z,7.9
2023-07-26T20:54:52.142Z,7.9
2023-07-26T20:55:53.766Z,7.9
2023-07-26T20:56:55.351Z,7.9
2023-07-26T20:57:57.143Z,7.9
2023-07-26T20:58:58.746Z,7.9
2023-07-26T21:00:00.471Z,7.9
2023-07-26T21:01:02.110Z,7.9
2023-07-26T21:02:03.980Z,7.9
2023-07-26T21:03:06.247Z,7.9
2023-07-26T21:04:07.700Z,7.9
2023-07-26T21:05:09.355Z,7.9
2023-07-26T21:06:10.813Z,7.9
2023-07-26T21:07:12.197Z,7.9
2023-07-26T21:08:13.757Z,7.9
2023-07-26T21:09:15.214Z,7.9
2023-07-26T21:10:16.701Z,7.9
2023-07-26T21:11:18.094Z,7.9
2023-07-26T21:12:19.707Z,7.9
2023-07-26T21:13:21.323Z,7.9
2023-07-26T21:14:22.899Z,7.9
2023-07-26T21:15:24.532Z,7.9
2023-07-26T21:16:26.134Z,7.9
2023-07-26T21:17:28.369Z,7.9
2023-07-26T21:18:30.095Z,7.9
2023-07-26T21:19:34.708Z,7.9
2023-07-26T21:20:36.231Z,7.9
2023-07-26T21:21:38.135Z,7.9
2023-07-26T21:22:39.703Z,7.9
2023-07-26T21:23:40.992Z,7.9
2023-07-26T21:24:42.755Z,7.9
2023-07-26T21:25:44.315Z,7.9
2023-07-26T21:26:45.948Z,7.9
2023-07-26T21:27:47.553Z,7.9
2023-07-26T21:28:49.205Z,7.9
2023-07-26T21:29:50.808Z,7.9
2023-07-26T21:30:52.451Z,7.9
2023-07-26T21:31:54.978Z,7.9
2023-07-26T21:32:56.907Z,7.9
2023-07-26T21:33:58.278Z,7.9
2023-07-26T21:34:59.809Z,7.9
2023-07-26T21:36:01.370Z,7.9
2023-07-26T21:37:02.979Z,7.9
2023-07-26T21:38:04.518Z,7.9
2023-07-26T21:39:06.045Z,7.9
2023-07-26T21:40:07.700Z,7.9
2023-07-26T21:41:09.170Z,7.9
2023-07-26T21:42:10.579Z,7.9
2023-07-26T21:43:12.023Z,7.9
2023-07-26T21:44:13.901Z,7.9
2023-07-26T21:45:15.493Z,7.9
2023-07-26T21:46:17.306Z,7.9
2023-07-26T21:47:18.768Z,7.9
2023-07-26T21:48:20.181Z,7.9
2023-07-26T21:49:21.868Z,7.9
2023-07-26T21:50:23.418Z,7.9
2023-07-26T21:51:24.975Z,7.9
2023-07-26T21:52:26.579Z,7.9
2023-07-26T21:53:28.160Z,7.9
2023-07-26T21:54:29.746Z,7.9
2023-07-26T21:55:31.267Z,7.9
2023-07-26T21:56:33.085Z,7.9
2023-07-26T21:57:34.548Z,7.9
2023-07-26T21:58:36.085Z,7.9
2023-07-26T21:59:37.767Z,7.9
2023-07-26T22:00:39.198Z,7.9
2023-07-26T22:01:40.918Z,7.9
2023-07-26T22:02:42.458Z,7.9
2023-07-26T22:03:43.952Z,7.9
2023-07-26T22:04:45.887Z,7.9
2023-07-26T22:05:47.582Z,7.9
2023-07-26T22:06:48.877Z,7.9
2023-07-26T22:07:50.278Z,7.9
2023-07-26T22:08:51.872Z,7.9
2023-07-26T22:09:53.411Z,7.9
2023-07-26T22:10:55.003Z,7.9
2023-07-26T22:11:56.426Z,7.9
2023-07-26T22:12:57.828Z,7.9
2023-07-26T22:13:59.799Z,7.9
2023-07-26T22:15:01.363Z,7.9
2023-07-26T22:16:03.239Z,7.9
2023-07-26T22:17:04.723Z,7.9
2023-07-26T22:18:06.693Z,7.9
2023-07-26T22:19:08.237Z,7.9
2023-07-26T22:20:09.792Z,7.9
2023-07-26T22:21:18.731Z,7.9
2023-07-26T22:22:20.336Z,7.9
2023-07-26T22:23:21.933Z,7.9
2023-07-26T22:24:23.740Z,7.9
2023-07-26T22:25:25.188Z,7.9
2023-07-26T22:26:26.743Z,7.9
2023-07-26T22:27:28.164Z,7.9
2023-07-26T22:28:29.742Z,7.9
2023-07-26T22:29:31.304Z,7.9
2023-07-26T22:30:32.969Z,7.9
2023-07-26T22:31:37.020Z,7.9
2023-07-26T22:32:39.198Z,7.9
2023-07-26T22:33:40.829Z,7.9
2023-07-26T22:34:42.413Z,7.9
2023-07-26T22:35:43.951Z,7.9
2023-07-26T22:36:45.369Z,7.9
2023-07-26T22:37:46.932Z,7.9
2023-07-26T22:38:48.529Z,7.9
2023-07-26T22:39:50.060Z,7.9
2023-07-26T22:40:51.616Z,7.9
2023-07-26T22:41:53.123Z,7.9
2023-07-26T22:42:54.420Z,7.9
2023-07-26T22:43:55.934Z,7.9
2023-07-26T22:44:57.218Z,7.9
2023-07-26T22:45:59.015Z,7.9
2023-07-26T22:47:00.585Z,7.9
2023-07-26T22:48:02.096Z,7.9
2023-07-26T22:49:03.490Z,7.9
2023-07-26T22:50:05.058Z,7.9
2023-07-26T22:51:06.406Z,7.9
2023-07-26T22:52:07.969Z,7.9
2023-07-26T22:53:09.499Z,7.9
2023-07-26T22:54:11.063Z,7.9
2023-07-26T22:55:12.597Z,7.9
2023-07-26T22:56:14.204Z,7.9
2023-07-26T22:57:15.516Z,7.9
2023-07-26T22:58:17.009Z,7.9
2023-07-26T22:59:18.617Z,7.9
2023-07-26T23:00:20.222Z,7.9
2023-07-26T23:01:22.160Z,7.9
2023-07-26T23:02:23.891Z,7.9
2023-07-26T23:03:25.584Z,7.9
2023-07-26T23:04:27.207Z,7.9
2023-07-26T23:05:28.756Z,7.9
2023-07-26T23:06:30.509Z,7.9
2023-07-26T23:07:31.907Z,7.9
2023-07-26T23:08:33.493Z,7.9
2023-07-26T23:09:35.243Z,7.9
2023-07-26T23:10:36.794Z,7.9
2023-07-26T23:11:38.457Z,7.9
2023-07-26T23:12:39.835Z,7.9
2023-07-26T23:13:41.272Z,7.9
2023-07-26T23:14:42.844Z,7.8
2023-07-26T23:15:44.607Z,7.9
2023-07-26T23:16:46.294Z,7.9
2023-07-26T23:17:48.185Z,7.8
2023-07-26T23:18:49.773Z,7.9
2023-07-26T23:19:51.319Z,7.9
2023-07-26T23:20:53.792Z,7.9
2023-07-26T23:21:55.207Z,7.9
2023-07-26T23:22:56.593Z,7.9
2023-07-26T23:23:57.975Z,7.9
2023-07-26T23:24:59.914Z,7.9
2023-07-26T23:26:01.519Z,7.9
2023-07-26T23:27:03.107Z,7.9
2023-07-26T23:28:04.609Z,7.9
2023-07-26T23:29:06.176Z,7.9
2023-07-26T23:30:07.787Z,7.9
2023-07-26T23:31:09.610Z,7.9
2023-07-26T23:32:11.269Z,7.9
2023-07-26T23:33:12.718Z,7.9
2023-07-26T23:34:14.321Z,7.9
2023-07-26T23:35:15.841Z,7.9
2023-07-26T23:36:17.369Z,7.8
2023-07-26T23:37:18.899Z,7.8
2023-07-26T23:38:20.531Z,7.8
2023-07-26T23:39:22.161Z,7.8
2023-07-26T23:40:23.772Z,7.8
2023-07-26T23:41:25.328Z,7.8
2023-07-26T23:42:26.846Z,7.8
2023-07-26T23:43:28.383Z,7.8
2023-07-26T23:44:29.948Z,7.8
2023-07-26T23:45:31.490Z,7.8
2023-07-26T23:46:35.729Z,7.8
2023-07-26T23:47:37.813Z,7.8
2023-07-26T23:48:39.490Z,7.8
2023-07-26T23:49:41.077Z,7.8
2023-07-26T23:50:42.640Z,7.8
2023-07-26T23:51:44.040Z,7.8
2023-07-26T23:52:45.584Z,7.8
2023-07-26T23:53:47.086Z,7.8
2023-07-26T23:54:48.609Z,7.8
2023-07-26T23:55:50.161Z,7.8
2023-07-26T23:56:51.716Z,7.8
2023-07-26T23:57:53.278Z,7.8
2023-07-26T23:58:54.797Z,7.9
2023-07-26T23:59:56.342Z,7.9
